Currently 44°F in Lake Elsinore, California, USA
44°F
62°F / 42°F
calm
0.00"
Friday, February 23, 2018 10:15 PM PST

Lake Elsinore, California Weather Summary
Last 36 Hours

Temperature Winds Hourly Humidity Dewpoint
Time Report Norm Report Norm Max Gusts Precip. Rpt. Norm Rpt. Norm Pressure
1Fri 10:15 PM  43.9°F  50°F  calm  1 mph  4 mph  0.00"  36%  81%  18°F  44°F  30.27"
Fri 10:00 PM  44.1°F  50°F  calm  1 mph  7 mph  0.00"  35%  81%  17°F  44°F  30.27"
3Fri 09:24 PM  42.1°F  51°F  calm  1 mph  4 mph  ----  38%  79%  17°F  44°F  30.26"
Fri 09:00 PM  43.0°F  51°F  calm  1 mph  none  0.00"  36%  78%  17°F  44°F  30.25"
Fri 08:00 PM  44.8°F  53°F  calm  1 mph  none  0.00"  36%  75%  18°F  45°F  30.24"
Fri 07:00 PM  48.2°F  55°F  calm  2 mph  none  0.00"  37%  71%  22°F  45°F  30.22"
Fri 06:00 PM  51.3°F  57°F  calm  3 mph  15 mph  0.00"  35%  67%  23°F  46°F  30.19"
Fri 05:00 PM  55.0°F  61°F  7 mph W  4 mph  16 mph  0.00"  31%  60%  24°F  47°F  30.17"
Fri 04:00 PM  60.4°F  64°F  4 mph SW  4 mph  10 mph  0.00"  20%  55%  18°F  47°F  30.14"
Fri 03:00 PM  59.4°F  65°F  calm  4 mph  9 mph  0.00"  18%  52%  14°F  47°F  30.13"
2Fri 02:34 PM  62.2°F  65°F  1 mph NE  4 mph  2 mph  ----  16%  52%  14°F  47°F  30.14"
Fri 02:00 PM  61.6°F  65°F  calm  4 mph  9 mph  0.00"  16%  52%  12°F  47°F  30.14"
Fri 01:00 PM  61.5°F  65°F  calm  3 mph  10 mph  0.00"  17%  53%  14°F  47°F  30.14"
Fri 12:00 PM  59.4°F  64°F  1 mph E  3 mph  14 mph  0.00"  18%  56%  14°F  47°F  30.17"
Fri 11:00 AM  58.4°F  61°F  2 mph E  3 mph  11 mph  0.00"  24%  61%  20°F  47°F  30.18"
Fri 10:00 AM  52.8°F  57°F  2 mph W  2 mph  11 mph  0.00"  41%  70%  28°F  47°F  30.19"
Fri 09:00 AM  54.7°F  54°F  7 mph W  2 mph  12 mph  0.00"  39%  79%  29°F  47°F  30.19"
Fri 08:00 AM  51.3°F  50°F  3 mph W  1 mph  15 mph  0.00"  46%  88%  30°F  46°F  30.18"
Fri 07:00 AM  45.3°F  44°F  3 mph E  1 mph  10 mph  0.00"  59%  92%  31°F  41°F  30.16"
Fri 06:00 AM  46.7°F  44°F  3 mph SW  1 mph  19 mph  0.00"  58%  92%  32°F  41°F  30.15"
Fri 05:00 AM  45.6°F  44°F  4 mph SW  1 mph  8 mph  0.00"  64%  91%  34°F  41°F  30.15"
Fri 04:00 AM  45.8°F  44°F  calm  1 mph  12 mph  0.00"  66%  90%  34°F  42°F  30.15"
Fri 03:00 AM  46.7°F  45°F  5 mph SW  1 mph  12 mph  0.00"  68%  89%  36°F  42°F  30.15"
Fri 02:00 AM  47.4°F  46°F  6 mph SW  1 mph  12 mph  0.00"  69%  88%  37°F  42°F  30.16"
Fri 01:00 AM  47.1°F  47°F  5 mph SW  1 mph  16 mph  0.00"  69%  87%  37°F  43°F  30.19"
Fri 12:00 AM  47.2°F  47°F  5 mph SW  1 mph  12 mph  0.00"  70%  85%  37°F  43°F  30.19"
Thu 11:00 PM  47.9°F  49°F  4 mph SW  1 mph  11 mph  0.00"  69%  83%  38°F  44°F  30.19"
Thu 10:00 PM  46.0°F  50°F  calm  1 mph  none  0.00"  68%  81%  36°F  44°F  30.20"
Thu 09:00 PM  47.5°F  51°F  calm  1 mph  none  0.00"  63%  78%  35°F  45°F  30.20"
Thu 08:00 PM  48.2°F  53°F  calm  1 mph  none  0.00"  62%  75%  35°F  45°F  30.19"
Thu 07:00 PM  49.7°F  55°F  calm  2 mph  16 mph  0.00"  58%  71%  35°F  45°F  30.19"
Thu 06:00 PM  51.1°F  58°F  7 mph SW  3 mph  16 mph  0.00"  54%  66%  34°F  46°F  30.18"
Thu 05:00 PM  53.8°F  61°F  2 mph W  4 mph  18 mph  0.00"  50%  60%  35°F  47°F  30.17"
Thu 04:00 PM  57.2°F  64°F  7 mph SW  4 mph  17 mph  0.00"  43%  55%  34°F  47°F  30.17"
Thu 03:00 PM  58.7°F  65°F  6 mph SW  4 mph  20 mph  0.00"  35%  52%  30°F  47°F  30.18"
Thu 02:00 PM  59.4°F  66°F  8 mph W  4 mph  15 mph  0.00"  31%  51%  28°F  47°F  30.18"
Thu 01:00 PM  56.8°F  65°F  5 mph W  3 mph  25 mph  0.00"  42%  52%  33°F  47°F  30.20"
Thu 12:00 PM  59.6°F  64°F  6 mph SW  3 mph  16 mph  0.00"  38%  55%  33°F  47°F  30.22"
Thu 11:00 AM  57.2°F  61°F  6 mph SW  3 mph  14 mph  0.00"  42%  61%  33°F  47°F  30.24"

  1. Current weather data. No green row appears if the current weather data is also the high or low for the current day.
  2. High temperature for the current day.
  3. Low temperature for the current day.

The Lake Elsinore, California weather pages are a service of WeatherCurrents. Lake Elsinore is located south of Corona and north of the Temecula Valley, in southwestern Riverside County, California.
Copyright ©Fri Feb 23 22:16:08 PST 2018  WeatherCurrents. All rights reserved. - Submit questions and comments - Privacy Policy

This page automatically refreshes every 10 minutes.